Time;durP1;ratioP1;P1;durP2;ratioP2;P2;SDS_P1;SDS_P2;PMS_P1;PMS_P2;Temp;Humidity;BMP_temperature;BMP_pressure;BME280_temperature;BME280_humidity;BME280_pressure;Samples;Min_cycle;Max_cycle;Signal;HPM_P1;HPM_P2
2022/10/13 00:00:22;;;;;;;15.82;8.98;;;16.00;99.90;;;;;;4899865;29;20020;-76
2022/10/13 00:02:48;;;;;;;18.77;9.57;;;16.00;99.90;;;;;;4899751;29;20479;-76
2022/10/13 00:05:14;;;;;;;15.77;9.48;;;16.10;99.90;;;;;;4899480;29;20041;-76
2022/10/13 00:07:40;;;;;;;13.40;9.15;;;16.10;99.90;;;;;;4899665;29;20032;-76
2022/10/13 00:10:07;;;;;;;12.93;8.93;;;16.10;99.90;;;;;;4899339;29;20012;-76
2022/10/13 00:12:37;;;;;;;18.23;9.25;;;16.10;99.90;;;;;;4899567;29;20036;-76
2022/10/13 00:15:06;;;;;;;13.40;8.93;;;16.10;99.90;;;;;;4899450;29;20040;-76
2022/10/13 00:17:32;;;;;;;15.43;9.27;;;16.10;99.90;;;;;;4899345;29;20459;-76
2022/10/13 00:19:58;;;;;;;18.77;9.57;;;16.10;99.90;;;;;;4899450;29;20021;-76
2022/10/13 00:22:26;;;;;;;15.98;9.50;;;16.10;99.90;;;;;;4899340;29;20398;-76
2022/10/13 00:24:52;;;;;;;19.00;9.98;;;16.10;99.90;;;;;;4882457;29;20442;-76
2022/10/13 00:27:18;;;;;;;13.82;8.98;;;16.00;99.90;;;;;;4899265;29;20028;-76
2022/10/13 00:29:44;;;;;;;16.65;9.98;;;16.00;99.90;;;;;;4882456;29;20112;-76
2022/10/13 00:32:10;;;;;;;17.77;8.68;;;16.00;99.90;;;;;;4899264;29;20035;-76
2022/10/13 00:34:37;;;;;;;17.02;9.02;;;16.00;99.90;;;;;;4899198;29;20024;-76
2022/10/13 00:37:03;;;;;;;20.98;9.25;;;15.90;99.90;;;;;;4898126;29;20029;-76
2022/10/13 00:39:29;;;;;;;14.73;9.00;;;15.90;99.90;;;;;;4899134;29;20483;-76
2022/10/13 00:41:57;;;;;;;17.77;9.55;;;15.90;99.90;;;;;;4898843;29;20037;-76
2022/10/13 00:45:11;;;;;;;14.63;9.63;;;15.80;99.90;;;;;;4882154;29;20075;-76
2022/10/13 00:47:43;;;;;;;15.75;9.35;;;15.80;99.90;;;;;;4886217;29;20623;-76
2022/10/13 00:50:20;;;;;;;15.80;9.43;;;15.80;99.90;;;;;;4899086;29;20036;-76
2022/10/13 00:52:47;;;;;;;14.75;8.88;;;15.80;99.90;;;;;;4898861;29;20025;-76
2022/10/13 00:55:16;;;;;;;13.70;9.07;;;15.70;99.90;;;;;;4898733;29;20040;-76
2022/10/13 00:57:45;;;;;;;20.90;9.43;;;15.70;99.90;;;;;;4882122;29;20471;-76
2022/10/13 01:00:11;;;;;;;21.23;9.20;;;15.70;99.90;;;;;;4898874;29;20031;-76
2022/10/13 01:02:37;;;;;;;15.60;9.30;;;15.70;99.90;;;;;;4898601;29;20035;-76
2022/10/13 01:05:06;;;;;;;15.25;9.25;;;15.80;99.90;;;;;;4898571;29;20037;-76
2022/10/13 01:07:33;;;;;;;15.88;9.02;;;15.70;99.90;;;;;;4898737;29;20402;-76
2022/10/13 01:10:01;;;;;;;16.27;9.82;;;15.70;99.90;;;;;;4898554;29;20056;-76
2022/10/13 01:12:36;;;;;;;14.73;9.45;;;15.70;99.90;;;;;;4898616;29;20119;-76
2022/10/13 01:15:30;;;;;;;17.23;10.10;;;15.70;99.90;;;;;;4898331;29;20063;-76
2022/10/13 01:18:14;;;;;;;24.25;9.63;;;15.70;99.90;;;;;;4881478;29;20036;-76
2022/10/13 01:21:04;;;;;;;15.63;10.25;;;15.70;99.90;;;;;;4881628;29;20028;-76
2022/10/13 01:23:41;;;;;;;18.05;10.40;;;15.70;99.90;;;;;;4898271;29;20020;-76
2022/10/13 01:26:35;;;;;;;19.83;9.75;;;15.70;99.90;;;;;;4881303;29;20096;-76
2022/10/13 01:29:25;;;;;;;15.82;9.80;;;15.70;99.90;;;;;;4898192;29;20495;-76
2022/10/13 01:31:50;;;;;;;19.25;9.27;;;15.70;99.90;;;;;;4898251;29;20107;-76
2022/10/13 01:34:29;;;;;;;18.17;9.38;;;15.70;99.90;;;;;;4897955;29;20116;-76
2022/10/13 01:36:58;;;;;;;16.27;9.60;;;15.70;99.90;;;;;;4898108;29;20028;-76
2022/10/13 01:39:36;;;;;;;18.83;10.07;;;15.60;99.90;;;;;;4897967;29;20393;-76
2022/10/13 01:42:11;;;;;;;19.70;9.38;;;15.70;99.90;;;;;;4897888;29;20143;-76
2022/10/13 01:44:44;;;;;;;14.50;9.27;;;15.70;99.90;;;;;;4897959;29;20088;-76
2022/10/13 01:47:10;;;;;;;;;;;15.70;99.90;;;;;;4898015;29;20025;-76
2022/10/13 01:49:37;;;;;;;19.42;10.07;;;15.60;99.90;;;;;;4897400;29;20405;-76
2022/10/13 01:52:07;;;;;;;17.52;10.23;;;15.60;99.90;;;;;;4897914;29;20410;-76
2022/10/13 01:54:33;;;;;;;11.40;9.52;;;15.60;99.90;;;;;;4897639;29;20080;-76
2022/10/13 01:56:59;;;;;;;15.32;10.27;;;15.60;99.90;;;;;;4897883;29;20052;-76
2022/10/13 01:59:28;;;;;;;13.20;9.38;;;15.60;99.90;;;;;;4880945;29;20055;-76
2022/10/13 02:02:11;;;;;;;18.38;10.57;;;15.60;99.90;;;;;;4897517;29;20056;-76
2022/10/13 02:05:25;;;;;;;20.83;10.23;;;15.60;99.90;;;;;;4897498;29;20107;-76
2022/10/13 02:08:05;;;;;;;17.85;9.75;;;15.60;99.90;;;;;;4826330;29;20104;-76
2022/10/13 02:10:39;;;;;;;15.57;10.00;;;15.50;99.90;;;;;;4897410;29;20036;-76
2022/10/13 02:13:08;;;;;;;18.48;9.60;;;15.50;99.90;;;;;;4897324;29;20060;-76
2022/10/13 02:15:43;;;;;;;16.58;10.27;;;15.60;99.90;;;;;;4880435;29;20040;-76
2022/10/13 02:18:12;;;;;;;16.67;10.52;;;15.50;99.90;;;;;;4897138;29;20380;-76
2022/10/13 02:20:41;;;;;;;20.10;10.75;;;15.60;99.90;;;;;;4896982;29;20039;-76
2022/10/13 02:23:11;;;;;;;21.85;10.80;;;15.50;99.90;;;;;;4897158;29;20107;-76
2022/10/13 02:25:38;;;;;;;16.25;10.60;;;15.60;99.90;;;;;;4897201;29;20052;-76
2022/10/13 02:28:05;;;;;;;15.90;9.55;;;15.60;99.90;;;;;;4897093;29;20020;-76
2022/10/13 02:30:32;;;;;;;14.65;9.48;;;15.50;99.90;;;;;;4880259;29;20028;-76
2022/10/13 02:32:58;;;;;;;20.08;10.93;;;15.50;99.90;;;;;;4880256;29;20060;-76
2022/10/13 02:35:24;;;;;;;18.58;10.77;;;15.50;99.90;;;;;;4879998;29;20467;-76
2022/10/13 02:37:50;;;;;;;16.80;10.35;;;15.50;99.90;;;;;;4880206;29;20032;-76
2022/10/13 02:40:16;;;;;;;18.70;10.45;;;15.50;99.90;;;;;;4896963;29;20386;-75
2022/10/13 02:42:42;;;;;;;18.83;10.40;;;15.50;99.90;;;;;;4896915;29;20116;-76
2022/10/13 02:45:08;;;;;;;20.00;10.77;;;15.40;99.90;;;;;;4896987;29;20111;-75
2022/10/13 02:47:34;;;;;;;19.42;11.43;;;15.40;99.90;;;;;;4880150;29;20024;-76
2022/10/13 02:50:00;;;;;;;19.73;10.05;;;15.40;99.90;;;;;;4896879;29;20115;-76
2022/10/13 02:52:25;;;;;;;15.98;10.57;;;15.40;99.90;;;;;;4896838;29;20040;-76
2022/10/13 02:54:51;;;;;;;19.85;11.23;;;15.50;99.90;;;;;;4896670;29;20116;-76
2022/10/13 02:57:17;;;;;;;19.52;11.15;;;15.50;99.90;;;;;;4896691;29;20039;-77
2022/10/13 02:59:43;;;;;;;17.75;11.30;;;15.40;99.90;;;;;;4895993;29;20047;-76
2022/10/13 03:02:09;;;;;;;18.70;10.93;;;15.40;99.90;;;;;;4879925;29;20024;-76
2022/10/13 03:04:35;;;;;;;17.77;10.27;;;15.40;99.90;;;;;;4879893;29;20025;-76
2022/10/13 03:07:01;;;;;;;18.05;10.65;;;15.40;99.90;;;;;;4896645;29;20056;-76
2022/10/13 03:09:27;;;;;;;21.35;10.45;;;15.40;99.90;;;;;;4896728;29;20394;-76
2022/10/13 03:11:52;;;;;;;21.17;10.75;;;15.40;99.90;;;;;;4896531;29;20037;-76
2022/10/13 03:14:19;;;;;;;17.05;10.93;;;15.40;99.90;;;;;;4896579;29;20033;-76
2022/10/13 03:16:44;;;;;;;14.77;10.65;;;15.40;99.90;;;;;;4896472;29;20024;-76
2022/10/13 03:19:10;;;;;;;15.25;10.57;;;15.40;99.90;;;;;;4896507;29;20478;-76
2022/10/13 03:21:37;;;;;;;19.33;10.77;;;15.30;99.90;;;;;;4896407;29;20526;-76
2022/10/13 03:24:04;;;;;;;17.25;9.85;;;15.40;99.90;;;;;;4896421;29;20108;-76
2022/10/13 03:26:31;;;;;;;18.75;10.32;;;15.30;99.90;;;;;;4896413;29;20084;-76
2022/10/13 03:28:56;;;;;;;16.50;10.23;;;15.30;99.90;;;;;;4896418;29;20029;-76
2022/10/13 03:31:22;;;;;;;22.30;10.55;;;15.30;99.90;;;;;;4896174;29;20032;-76
2022/10/13 03:33:49;;;;;;;17.02;10.70;;;15.20;99.90;;;;;;4896428;29;20025;-75
2022/10/13 03:36:15;;;;;;;18.40;11.27;;;15.20;99.90;;;;;;4896291;29;20040;-75
2022/10/13 03:38:41;;;;;;;18.40;11.00;;;15.20;99.90;;;;;;4896440;29;20028;-75
2022/10/13 03:41:08;;;;;;;16.13;10.77;;;15.30;99.90;;;;;;4896268;29;20067;-76
2022/10/13 03:43:34;;;;;;;21.00;10.52;;;15.30;99.90;;;;;;4879517;29;20027;-76
2022/10/13 03:46:02;;;;;;;25.10;11.10;;;15.30;99.90;;;;;;4896375;29;20107;-76
2022/10/13 03:48:29;;;;;;;21.50;11.10;;;15.30;99.90;;;;;;4896295;29;20038;-76
2022/10/13 03:50:56;;;;;;;14.73;10.77;;;15.20;99.90;;;;;;4896366;29;20024;-76
2022/10/13 03:53:23;;;;;;;16.30;10.75;;;15.20;99.90;;;;;;4896170;29;20036;-76
2022/10/13 03:55:54;;;;;;;17.27;11.23;;;15.20;99.90;;;;;;4878517;29;20085;-76
2022/10/13 03:58:22;;;;;;;20.17;11.00;;;15.20;99.90;;;;;;4896388;29;20036;-76
2022/10/13 04:00:48;;;;;;;23.02;10.77;;;15.10;99.90;;;;;;4896404;29;20024;-76
2022/10/13 04:03:15;;;;;;;16.50;10.57;;;15.20;99.90;;;;;;4896244;29;20021;-76
2022/10/13 04:05:41;;;;;;;19.00;11.57;;;15.20;99.90;;;;;;4896094;29;20052;-76
2022/10/13 04:08:07;;;;;;;17.55;10.93;;;15.20;99.90;;;;;;4896049;29;20021;-76
2022/10/13 04:10:33;;;;;;;23.45;12.10;;;15.10;99.90;;;;;;4896797;29;20040;-76
2022/10/13 04:12:58;;;;;;;17.73;10.60;;;15.10;99.90;;;;;;4899230;29;20033;-76
2022/10/13 04:15:24;;;;;;;18.20;11.55;;;15.10;99.90;;;;;;4882685;29;20036;-76
2022/10/13 04:17:50;;;;;;;14.85;10.93;;;15.10;99.90;;;;;;4899540;29;20505;-76
2022/10/13 04:20:16;;;;;;;16.88;10.52;;;15.10;99.90;;;;;;4882621;29;20035;-76
2022/10/13 04:22:42;;;;;;;19.73;11.32;;;15.00;99.90;;;;;;4882822;29;20021;-77
2022/10/13 04:25:09;;;;;;;16.10;11.13;;;15.00;99.90;;;;;;4899591;29;20427;-76
2022/10/13 04:27:38;;;;;;;20.10;11.05;;;15.00;99.90;;;;;;4899469;29;20060;-76
2022/10/13 04:30:05;;;;;;;17.45;11.30;;;15.00;99.90;;;;;;4882403;29;20059;-76
2022/10/13 04:32:31;;;;;;;16.38;12.65;;;15.00;99.90;;;;;;4899235;29;20440;-76
2022/10/13 04:34:57;;;;;;;22.17;11.18;;;15.00;99.90;;;;;;4899108;29;20039;-76
2022/10/13 04:37:24;;;;;;;17.38;11.65;;;15.00;99.90;;;;;;4882211;29;20461;-76
2022/10/13 04:39:49;;;;;;;18.88;11.02;;;15.00;99.90;;;;;;4899272;29;20013;-76
2022/10/13 04:42:15;;;;;;;18.75;11.48;;;15.00;99.90;;;;;;4882241;29;20035;-76
2022/10/13 04:44:41;;;;;;;20.20;12.23;;;14.90;99.90;;;;;;4899006;29;20032;-76
2022/10/13 04:47:10;;;;;;;19.27;12.48;;;14.90;99.90;;;;;;4882371;29;20039;-76
2022/10/13 04:49:36;;;;;;;21.05;12.38;;;14.90;99.90;;;;;;4899190;29;20036;-76
2022/10/13 04:52:01;;;;;;;19.45;11.80;;;14.90;99.90;;;;;;4898878;29;20032;-76
2022/10/13 04:54:27;;;;;;;19.92;11.73;;;14.90;99.90;;;;;;4898946;29;20394;-76
2022/10/13 04:56:53;;;;;;;21.45;12.07;;;14.90;99.90;;;;;;4898898;29;20067;-76
2022/10/13 04:59:18;;;;;;;22.42;11.75;;;14.90;99.90;;;;;;4898801;29;20474;-76
2022/10/13 05:01:44;;;;;;;18.55;11.60;;;14.90;99.90;;;;;;4898865;29;20084;-76
2022/10/13 05:04:12;;;;;;;18.63;11.18;;;14.90;99.90;;;;;;4882418;29;20036;-76
2022/10/13 05:06:41;;;;;;;17.48;11.70;;;14.90;99.90;;;;;;4898413;29;20056;-76
2022/10/13 05:09:12;;;;;;;24.02;11.38;;;14.90;99.90;;;;;;4898508;29;20111;-76
2022/10/13 05:11:38;;;;;;;21.77;12.57;;;14.90;99.90;;;;;;4898511;29;20372;-76
2022/10/13 05:14:04;;;;;;;23.80;13.13;;;14.90;99.90;;;;;;4898653;29;20039;-76
2022/10/13 05:16:30;;;;;;;21.42;12.13;;;15.00;99.90;;;;;;4898394;29;20029;-76
2022/10/13 05:18:55;;;;;;;19.90;11.95;;;15.00;99.90;;;;;;4898501;29;20398;-76
2022/10/13 05:21:24;;;;;;;20.63;12.32;;;15.00;99.90;;;;;;4896903;29;20035;-76
2022/10/13 05:23:54;;;;;;;18.23;11.98;;;15.00;99.90;;;;;;4878841;29;20035;-76
2022/10/13 05:26:27;;;;;;;18.17;11.88;;;14.90;99.90;;;;;;4896476;29;20025;-76
2022/10/13 05:28:57;;;;;;;21.00;11.70;;;14.90;99.90;;;;;;4896516;29;20031;-76
2022/10/13 05:31:28;;;;;;;17.92;12.68;;;14.90;99.90;;;;;;4896345;29;20063;-76
2022/10/13 05:33:54;;;;;;;17.88;12.15;;;14.90;99.90;;;;;;4896332;29;20056;-76
2022/10/13 05:36:25;;;;;;;22.25;12.02;;;14.90;99.90;;;;;;4879391;29;20077;-76
2022/10/13 05:38:55;;;;;;;21.65;12.50;;;14.90;99.90;;;;;;4896308;29;20444;-76
2022/10/13 05:41:22;;;;;;;19.35;12.05;;;14.90;99.90;;;;;;4896077;29;20104;-76
2022/10/13 05:43:49;;;;;;;19.55;12.30;;;14.90;99.90;;;;;;4896034;29;20020;-76
2022/10/13 05:46:15;;;;;;;23.27;12.02;;;14.90;99.90;;;;;;4896062;29;20036;-76
2022/10/13 05:48:41;;;;;;;22.48;12.77;;;14.90;99.90;;;;;;4881085;29;20081;-76
2022/10/13 05:51:12;;;;;;;21.15;12.43;;;14.90;99.90;;;;;;4897666;29;20064;-77
2022/10/13 05:53:41;;;;;;;21.93;12.57;;;14.80;99.90;;;;;;4897885;29;20020;-76
2022/10/13 05:56:14;;;;;;;22.15;12.27;;;14.80;99.90;;;;;;4897606;29;20032;-76
2022/10/13 05:58:47;;;;;;;24.23;12.65;;;14.80;99.90;;;;;;4897755;29;20028;-76
2022/10/13 06:01:17;;;;;;;16.73;12.65;;;14.80;99.90;;;;;;4880217;29;20028;-76
2022/10/13 06:03:45;;;;;;;18.45;12.38;;;14.80;99.90;;;;;;4897206;29;20044;-76
2022/10/13 06:06:11;;;;;;;21.90;12.32;;;14.80;99.90;;;;;;4897512;29;20179;-76
2022/10/13 06:08:37;;;;;;;21.90;12.20;;;14.90;99.90;;;;;;4897594;29;20301;-76
2022/10/13 06:11:04;;;;;;;18.17;13.02;;;14.90;99.90;;;;;;4880350;29;20047;-76
2022/10/13 06:13:30;;;;;;;23.38;12.00;;;14.90;99.90;;;;;;4897414;29;20032;-76
2022/10/13 06:15:55;;;;;;;17.83;11.68;;;15.00;99.90;;;;;;4897306;29;20060;-76
2022/10/13 06:18:21;;;;;;;17.98;11.65;;;15.00;99.90;;;;;;4897430;29;20028;-76
2022/10/13 06:20:47;;;;;;;18.90;11.50;;;15.00;99.90;;;;;;4897148;29;20035;-76
2022/10/13 06:23:12;;;;;;;20.50;12.93;;;15.10;99.90;;;;;;4898286;29;20013;-76
2022/10/13 06:25:48;;;;;;;20.90;12.40;;;15.10;99.90;;;;;;4898331;29;20349;-76
2022/10/13 06:28:15;;;;;;;17.60;12.30;;;15.10;99.90;;;;;;4881107;29;20040;-76
2022/10/13 06:30:42;;;;;;;17.65;11.90;;;15.10;99.90;;;;;;4898200;29;20037;-76
2022/10/13 06:33:08;;;;;;;16.92;10.93;;;15.10;99.90;;;;;;4898365;29;20021;-76
2022/10/13 06:35:35;;;;;;;20.27;12.02;;;15.10;99.90;;;;;;4896361;29;20032;-76
2022/10/13 06:38:01;;;;;;;20.15;12.70;;;15.10;99.90;;;;;;4896631;29;20023;-76
2022/10/13 06:40:26;;;;;;;22.38;12.32;;;15.10;99.90;;;;;;4896532;29;20024;-76
2022/10/13 06:42:52;;;;;;;18.88;13.15;;;15.10;99.90;;;;;;4896593;29;20475;-76
2022/10/13 06:45:18;;;;;;;22.13;12.48;;;15.10;99.90;;;;;;4896513;29;20024;-76
2022/10/13 06:47:44;;;;;;;19.33;11.80;;;15.10;99.90;;;;;;4903218;29;20463;-76
2022/10/13 06:50:10;;;;;;;19.35;11.43;;;15.20;99.90;;;;;;4893952;29;20424;-76
2022/10/13 06:52:37;;;;;;;19.13;12.25;;;15.20;99.90;;;;;;4896785;29;20037;-76
2022/10/13 06:55:03;;;;;;;21.88;12.27;;;15.30;99.90;;;;;;4897914;29;20040;-75
2022/10/13 06:57:29;;;;;;;20.02;12.18;;;15.30;99.90;;;;;;4898098;29;20432;-76
2022/10/13 06:59:55;;;;;;;20.38;12.57;;;15.40;99.90;;;;;;4881295;29;20021;-76
2022/10/13 07:02:20;;;;;;;18.98;11.82;;;15.40;99.90;;;;;;4898169;29;20028;-76
2022/10/13 07:04:46;;;;;;;21.42;13.27;;;15.40;99.90;;;;;;4897506;29;20033;-76
2022/10/13 07:07:13;;;;;;;21.85;11.88;;;15.50;99.90;;;;;;4897889;29;20040;-76
2022/10/13 07:09:39;;;;;;;14.02;11.32;;;15.50;99.90;;;;;;4897834;29;20029;-76
2022/10/13 07:12:06;;;;;;;19.25;12.27;;;15.60;99.90;;;;;;4897820;29;20032;-76
2022/10/13 07:14:32;;;;;;;17.00;12.10;;;15.60;99.90;;;;;;4881008;29;20172;-76
2022/10/13 07:16:58;;;;;;;19.90;11.60;;;15.70;99.90;;;;;;4897778;29;20107;-76
2022/10/13 07:19:24;;;;;;;18.20;11.85;;;15.70;99.90;;;;;;4880677;29;20574;-76
2022/10/13 07:21:50;;;;;;;19.73;11.88;;;15.80;99.90;;;;;;4897435;29;20107;-76
2022/10/13 07:24:15;;;;;;;17.00;11.20;;;15.80;99.90;;;;;;4897897;29;20095;-76
2022/10/13 07:26:41;;;;;;;20.05;12.13;;;15.90;99.90;;;;;;4897571;29;20036;-76
2022/10/13 07:29:07;;;;;;;19.83;11.82;;;15.90;99.90;;;;;;4897694;29;20169;-76
2022/10/13 07:31:32;;;;;;;20.52;11.77;;;16.00;99.90;;;;;;4880444;29;20482;-76
2022/10/13 07:33:59;;;;;;;25.95;11.43;;;16.00;99.90;;;;;;4896672;29;20040;-76
2022/10/13 07:36:26;;;;;;;12.23;10.30;;;16.10;99.90;;;;;;4897530;29;20133;-76
2022/10/13 07:38:52;;;;;;;12.73;10.23;;;16.10;99.90;;;;;;4880556;29;20031;-76
2022/10/13 07:41:18;;;;;;;19.67;10.93;;;16.20;99.90;;;;;;4897486;29;20021;-75
2022/10/13 07:43:44;;;;;;;19.27;11.15;;;16.20;99.90;;;;;;4911758;29;20052;-76
2022/10/13 07:46:12;;;;;;;18.60;10.88;;;16.20;99.90;;;;;;4899202;29;20064;-75
2022/10/13 07:48:38;;;;;;;19.73;11.27;;;16.30;99.90;;;;;;4901423;29;20416;-76
2022/10/13 07:51:08;;;;;;;18.55;10.07;;;16.30;99.90;;;;;;4901084;29;20484;-76
2022/10/13 07:53:34;;;;;;;18.10;10.95;;;16.40;99.90;;;;;;4900942;29;20557;-76
2022/10/13 07:56:02;;;;;;;20.80;10.20;;;16.50;99.90;;;;;;4915541;29;20123;-76
2022/10/13 07:58:28;;;;;;;13.80;10.18;;;16.50;99.90;;;;;;4901248;29;20028;-75
2022/10/13 08:00:58;;;;;;;15.25;10.82;;;16.50;99.90;;;;;;4900987;29;20032;-76
2022/10/13 08:03:24;;;;;;;15.45;9.63;;;16.50;99.90;;;;;;4900843;29;20027;-76
2022/10/13 08:05:50;;;;;;;18.92;10.80;;;16.60;99.90;;;;;;4900922;29;20052;-76
2022/10/13 08:08:16;;;;;;;18.17;10.18;;;16.70;99.90;;;;;;4900880;29;20029;-76
2022/10/13 08:10:42;;;;;;;17.42;11.10;;;16.80;99.90;;;;;;4900214;29;20112;-75
2022/10/13 08:13:09;;;;;;;14.07;10.02;;;16.90;99.90;;;;;;4900771;29;20035;-76
2022/10/13 08:15:40;;;;;;;16.65;10.13;;;16.90;99.90;;;;;;4883790;29;20089;-76
2022/10/13 08:18:06;;;;;;;15.98;9.77;;;17.00;99.90;;;;;;4900762;29;20048;-76
2022/10/13 08:20:33;;;;;;;16.58;11.05;;;17.10;99.90;;;;;;4900331;29;20484;-76
2022/10/13 08:22:59;;;;;;;15.40;10.98;;;17.10;99.90;;;;;;4900488;29;20576;-76
2022/10/13 08:25:25;;;;;;;20.17;9.98;;;17.20;99.90;;;;;;4900268;29;20071;-75
2022/10/13 08:27:50;;;;;;;20.92;11.38;;;17.30;99.90;;;;;;4899845;29;20104;-76
2022/10/13 08:30:16;;;;;;;18.90;10.65;;;17.30;99.90;;;;;;4899541;29;20033;-76
2022/10/13 08:32:42;;;;;;;22.88;10.75;;;17.30;99.90;;;;;;4899880;29;20026;-76
2022/10/13 08:35:09;;;;;;;19.48;10.35;;;17.30;99.90;;;;;;4899133;29;20032;-76
2022/10/13 08:37:35;;;;;;;14.75;9.25;;;17.30;99.90;;;;;;4899367;29;20025;-75
2022/10/13 08:40:01;;;;;;;20.55;9.57;;;17.30;99.90;;;;;;4899822;29;20029;-75
2022/10/13 08:42:27;;;;;;;16.27;10.45;;;17.30;99.90;;;;;;4900090;29;20465;-76
2022/10/13 08:45:03;;;;;;;16.23;9.75;;;17.30;99.90;;;;;;4900169;29;20028;-76
2022/10/13 08:47:49;;;;;;;15.02;10.32;;;17.40;99.90;;;;;;4900147;29;20039;-75
2022/10/13 08:50:23;;;;;;;19.17;9.13;;;17.50;99.90;;;;;;4900198;29;20039;-76
2022/10/13 08:52:57;;;;;;;17.90;11.02;;;17.50;99.90;;;;;;4900141;29;20024;-76
2022/10/13 08:55:39;;;;;;;17.35;10.68;;;17.60;99.90;;;;;;4899889;29;20036;-76
2022/10/13 08:58:21;;;;;;;19.02;10.27;;;17.60;99.90;;;;;;4899069;29;20028;-76
2022/10/13 09:00:46;;;;;;;23.90;11.63;;;17.70;99.90;;;;;;4900094;29;20104;-75
2022/10/13 09:03:25;;;;;;;18.88;12.05;;;17.70;99.90;;;;;;4900096;29;20509;-75
2022/10/13 09:06:13;;;;;;;20.35;12.05;;;17.80;99.90;;;;;;4899792;29;20048;-75
2022/10/13 09:08:58;;;;;;;20.30;12.25;;;17.80;99.90;;;;;;4882757;29;20037;-75
2022/10/13 09:11:29;;;;;;;22.42;12.57;;;17.90;99.90;;;;;;4899860;29;20037;-75
2022/10/13 09:13:57;;;;;;;25.33;12.25;;;17.90;99.90;;;;;;4899764;29;20025;-75
2022/10/13 09:16:37;;;;;;;18.75;11.85;;;17.80;99.90;;;;;;4898602;29;20037;-75
2022/10/13 09:19:32;;;;;;;26.80;12.73;;;17.80;99.90;;;;;;4898487;29;20020;-75
2022/10/13 09:22:13;;;;;;;21.63;13.52;;;17.80;99.90;;;;;;4898387;29;20028;-75
2022/10/13 09:24:39;;;;;;;24.45;12.45;;;17.90;99.90;;;;;;4898299;29;20025;-75
2022/10/13 09:27:19;;;;;;;22.20;13.27;;;17.90;99.90;;;;;;4897700;29;20028;-75
2022/10/13 09:29:44;;;;;;;29.55;13.07;;;18.10;99.90;;;;;;4896247;29;20257;-75
2022/10/13 09:32:17;;;;;;;21.45;12.55;;;18.10;99.90;;;;;;4896245;29;20424;-75
2022/10/13 09:34:44;;;;;;;22.48;13.82;;;18.10;99.90;;;;;;4896311;29;20020;-75
2022/10/13 09:37:24;;;;;;;25.00;15.25;;;18.10;99.90;;;;;;4896207;29;20080;-75
2022/10/13 09:40:19;;;;;;;24.15;14.48;;;18.20;99.90;;;;;;4896228;29;20051;-75
2022/10/13 09:42:52;;;;;;;24.50;14.30;;;18.20;99.90;;;;;;4880966;29;20338;-75
2022/10/13 09:45:21;;;;;;;25.65;14.80;;;18.20;99.90;;;;;;4898007;29;20044;-75
2022/10/13 09:47:56;;;;;;;24.10;14.52;;;18.20;99.90;;;;;;4897927;29;20029;-75
2022/10/13 09:50:27;;;;;;;23.58;14.15;;;18.20;99.90;;;;;;4881058;29;20399;-76
2022/10/13 09:53:14;;;;;;;30.38;15.15;;;18.20;99.90;;;;;;4897786;29;20043;-75
2022/10/13 09:55:39;;;;;;;24.75;15.05;;;18.30;99.90;;;;;;4897879;29;20032;-75
2022/10/13 09:58:18;;;;;;;27.73;16.52;;;18.30;99.90;;;;;;4880905;29;20032;-75
2022/10/13 10:00:44;;;;;;;22.67;14.35;;;18.30;99.90;;;;;;4897577;29;20039;-75
2022/10/13 10:03:31;;;;;;;23.15;15.00;;;18.30;99.90;;;;;;4897653;29;20124;-75
2022/10/13 10:06:06;;;;;;;22.80;14.27;;;18.30;99.90;;;;;;4896479;29;20048;-75
2022/10/13 10:08:56;;;;;;;19.88;14.30;;;18.40;99.90;;;;;;4897253;29;20163;-75
2022/10/13 10:11:39;;;;;;;23.83;13.75;;;18.40;99.90;;;;;;4897528;29;20472;-78
2022/10/13 10:14:26;;;;;;;21.30;14.52;;;18.40;99.90;;;;;;4880793;29;20105;-78
2022/10/13 10:17:32;;;;;;;29.23;14.80;;;18.40;99.90;;;;;;4897576;29;20040;-78
2022/10/13 10:20:31;;;;;;;26.27;15.20;;;18.50;99.90;;;;;;4862613;29;20101;-78
2022/10/13 10:23:21;;;;;;;23.05;13.75;;;18.60;99.90;;;;;;4897436;29;20088;-78
2022/10/13 10:25:58;;;;;;;23.15;12.88;;;18.70;99.90;;;;;;4897279;29;20024;-78
2022/10/13 10:28:26;;;;;;;28.58;14.18;;;18.70;99.90;;;;;;4897388;29;20028;-78
2022/10/13 10:31:20;;;;;;;18.50;12.45;;;18.70;99.90;;;;;;4880388;29;20032;-78
2022/10/13 10:33:55;;;;;;;22.13;14.07;;;18.90;99.90;;;;;;4897267;29;20028;-78
2022/10/13 10:36:37;;;;;;;20.35;11.90;;;19.10;99.90;;;;;;4897060;29;20099;-78
2022/10/13 10:39:20;;;;;;;24.33;12.57;;;19.00;99.90;;;;;;4880275;29;20035;-78
2022/10/13 10:42:25;;;;;;;23.63;11.77;;;19.10;99.90;;;;;;4897098;29;20052;-78
2022/10/13 10:44:53;;;;;;;21.27;11.80;;;19.30;99.90;;;;;;4884535;29;20047;-78
2022/10/13 10:47:19;;;;;;;17.85;12.80;;;19.40;99.90;;;;;;4897068;29;20036;-78
2022/10/13 10:49:45;;;;;;;19.33;11.90;;;19.50;99.90;;;;;;4897167;29;20075;-78
2022/10/13 10:52:23;;;;;;;17.15;12.55;;;19.60;99.90;;;;;;4897002;29;20028;-78
2022/10/13 10:54:58;;;;;;;25.02;11.98;;;19.60;99.90;;;;;;4896829;29;20490;-78
2022/10/13 10:57:36;;;;;;;20.10;11.75;;;19.70;99.90;;;;;;4880190;29;20037;-78
2022/10/13 11:00:05;;;;;;;16.27;10.60;;;19.80;99.90;;;;;;4880188;29;20387;-78
2022/10/13 11:02:44;;;;;;;20.15;12.00;;;19.80;99.90;;;;;;4896980;29;20053;-78
2022/10/13 11:05:10;;;;;;;20.98;11.20;;;19.80;99.90;;;;;;4896545;29;20052;-78
2022/10/13 11:07:38;;;;;;;20.20;11.00;;;19.80;99.90;;;;;;4896772;29;20060;-78
2022/10/13 11:10:15;;;;;;;20.90;10.57;;;19.90;99.90;;;;;;4896615;29;20028;-78
2022/10/13 11:12:49;;;;;;;19.60;10.45;;;19.90;99.90;;;;;;4879746;29;20037;-78
2022/10/13 11:15:22;;;;;;;19.42;10.48;;;19.90;99.90;;;;;;4879646;29;20037;-78
2022/10/13 11:17:47;;;;;;;15.95;9.85;;;19.90;99.90;;;;;;4879888;29;20035;-78
2022/10/13 11:20:16;;;;;;;18.75;10.85;;;19.90;99.90;;;;;;4896127;29;20028;-78
2022/10/13 11:23:02;;;;;;;18.70;10.30;;;19.80;99.90;;;;;;4896571;29;20028;-78
2022/10/13 11:25:47;;;;;;;15.70;9.60;;;19.70;99.90;;;;;;4896328;29;20028;-78
2022/10/13 11:28:22;;;;;;;18.48;11.23;;;19.70;99.90;;;;;;4896544;29;20087;-78
2022/10/13 11:31:03;;;;;;;14.55;10.73;;;19.70;99.90;;;;;;4896755;29;20387;-78
2022/10/13 11:33:38;;;;;;;20.35;12.38;;;19.80;99.90;;;;;;4879636;29;20071;-78
2022/10/13 11:36:46;;;;;;;17.65;9.88;;;19.80;99.90;;;;;;4879617;29;20118;-78
2022/10/13 11:39:27;;;;;;;21.35;11.25;;;19.90;99.90;;;;;;4884065;29;20036;-78
2022/10/13 11:42:04;;;;;;;18.63;11.15;;;20.00;99.90;;;;;;4896399;29;20056;-78
2022/10/13 11:44:55;;;;;;;17.90;10.80;;;20.00;99.90;;;;;;4896484;29;20391;-78
2022/10/13 11:47:52;;;;;;;21.27;9.90;;;20.00;99.90;;;;;;4896346;29;20262;-78
2022/10/13 11:50:36;;;;;;;17.48;10.43;;;20.10;99.90;;;;;;4879518;29;20373;-78
2022/10/13 11:53:26;;;;;;;20.33;10.27;;;20.20;99.90;;;;;;4879411;29;20217;-78
2022/10/13 11:55:54;;;;;;;15.00;10.57;;;20.20;99.90;;;;;;4896011;29;20029;-78
2022/10/13 11:58:23;;;;;;;13.18;9.30;;;20.20;99.90;;;;;;4879426;29;20051;-78
2022/10/13 12:00:54;;;;;;;18.75;10.45;;;20.30;99.90;;;;;;4879501;29;20111;-78
2022/10/13 12:03:41;;;;;;;14.55;10.07;;;20.30;99.90;;;;;;4896264;29;20029;-77
2022/10/13 12:06:35;;;;;;;16.67;9.35;;;20.40;99.90;;;;;;4896107;29;20112;-78
2022/10/13 12:09:06;;;;;;;13.68;9.93;;;20.30;99.90;;;;;;4896171;29;20043;-78
2022/10/13 12:11:36;;;;;;;21.42;10.30;;;20.30;99.90;;;;;;4895576;29;20025;-78
2022/10/13 12:14:05;;;;;;;20.05;9.50;;;20.20;99.90;;;;;;4879326;29;20029;-78
2022/10/13 12:16:31;;;;;;;15.45;9.50;;;20.20;99.90;;;;;;4896180;29;20036;-78
2022/10/13 12:19:20;;;;;;;18.08;9.07;;;20.30;99.90;;;;;;4896144;29;20034;-78
2022/10/13 12:21:54;;;;;;;18.30;8.90;;;20.30;99.90;;;;;;4895995;29;20025;-78
2022/10/13 12:24:26;;;;;;;17.52;9.65;;;20.30;99.90;;;;;;4896264;29;20510;-78
2022/10/13 12:26:52;;;;;;;23.27;11.33;;;20.30;99.90;;;;;;4879437;29;20063;-78
2022/10/13 12:29:22;;;;;;;15.57;9.68;;;20.40;99.90;;;;;;4879258;29;20510;-78
2022/10/13 12:31:49;;;;;;;19.13;10.70;;;20.40;99.90;;;;;;4897085;29;20032;-77
2022/10/13 12:34:26;;;;;;;15.98;10.35;;;20.50;99.90;;;;;;4899402;29;20032;-77
2022/10/13 12:37:29;;;;;;;19.33;12.00;;;20.50;99.90;;;;;;4882467;29;20088;-77
2022/10/13 12:39:57;;;;;;;19.55;11.77;;;20.50;99.90;;;;;;4847598;29;20208;-78
2022/10/13 12:42:30;;;;;;;26.20;12.75;;;20.50;99.90;;;;;;4899130;29;20079;-78
2022/10/13 12:45:00;;;;;;;24.58;11.45;;;20.40;99.90;;;;;;4899104;29;20052;-78
2022/10/13 12:47:37;;;;;;;24.60;14.07;;;20.40;99.90;;;;;;4899050;29;20064;-78